createdAt,value
2022-07-29T00:04:43.700Z,29.40
2022-07-29T00:09:50.830Z,29.30
2022-07-29T00:14:54.853Z,29.30
2022-07-29T00:19:56.563Z,29.30
2022-07-29T00:24:58.241Z,29.30
2022-07-29T00:29:59.891Z,29.20
2022-07-29T00:35:20.378Z,29.30
2022-07-29T00:40:23.347Z,29.30
2022-07-29T00:45:25.580Z,29.30
2022-07-29T00:50:27.725Z,29.20
2022-07-29T00:55:29.958Z,29.20
2022-07-29T01:00:32.016Z,29.20
2022-07-29T01:05:49.899Z,29.20
2022-07-29T01:10:54.187Z,29.30
2022-07-29T01:15:58.320Z,29.20
2022-07-29T01:21:22.797Z,29.20
2022-07-29T01:26:30.353Z,29.30
2022-07-29T01:31:59.478Z,29.30
2022-07-29T01:37:07.473Z,29.30
2022-07-29T01:42:18.307Z,29.20
2022-07-29T01:47:24.084Z,29.20
2022-07-29T01:52:32.553Z,29.30
2022-07-29T01:57:34.887Z,29.30
2022-07-29T02:02:38.704Z,29.30
2022-07-29T02:07:41.717Z,29.30
2022-07-29T02:12:44.155Z,29.30
2022-07-29T02:17:57.550Z,29.30
2022-07-29T02:23:00.571Z,29.30
2022-07-29T02:28:03.334Z,29.30
2022-07-29T02:33:05.676Z,29.30
2022-07-29T02:38:27.154Z,29.40
2022-07-29T02:43:29.882Z,29.30
2022-07-29T02:48:44.912Z,29.40
2022-07-29T02:53:50.127Z,29.40
2022-07-29T02:58:55.428Z,29.30
2022-07-29T03:03:57.316Z,29.40
2022-07-29T03:09:00.059Z,29.40
2022-07-29T03:14:02.011Z,29.30
2022-07-29T03:19:04.169Z,29.30
2022-07-29T03:24:10.265Z,29.30
2022-07-29T03:29:13.511Z,29.40
2022-07-29T03:34:16.053Z,29.30
2022-07-29T03:39:22.777Z,29.30
2022-07-29T03:44:26.136Z,29.30
2022-07-29T03:49:28.574Z,29.30
2022-07-29T03:54:30.365Z,29.30
2022-07-29T03:59:33.770Z,29.30
2022-07-29T04:04:35.891Z,29.30
2022-07-29T04:09:37.565Z,29.30
2022-07-29T04:14:39.264Z,29.30
2022-07-29T04:19:40.936Z,29.30
2022-07-29T04:24:44.479Z,29.30
2022-07-29T04:29:56.835Z,29.30
2022-07-29T04:34:59.170Z,29.40
2022-07-29T04:40:02.219Z,29.40
2022-07-29T04:45:04.122Z,29.50
2022-07-29T04:50:09.755Z,29.50
2022-07-29T04:55:11.438Z,29.50
2022-07-29T05:00:13.335Z,29.50
2022-07-29T05:05:15.021Z,29.50
2022-07-29T05:10:16.835Z,29.50
2022-07-29T05:15:18.715Z,29.60
2022-07-29T05:20:26.967Z,29.50
2022-07-29T05:25:43.348Z,29.50
2022-07-29T05:30:46.624Z,29.50
2022-07-29T05:35:48.374Z,29.60
2022-07-29T05:40:50.029Z,29.60
2022-07-29T05:45:51.726Z,29.70
2022-07-29T05:50:53.635Z,29.70
2022-07-29T05:55:55.686Z,29.70
2022-07-29T06:01:00.371Z,29.80
2022-07-29T06:06:02.185Z,29.80
2022-07-29T06:11:04.624Z,29.90
2022-07-29T06:16:06.364Z,29.90
2022-07-29T06:21:09.612Z,30.00
2022-07-29T06:26:11.501Z,30.00
2022-07-29T06:31:13.304Z,30.10
2022-07-29T06:36:15.421Z,30.20
2022-07-29T06:41:17.265Z,30.40
2022-07-29T06:46:19.591Z,30.50
2022-07-29T06:51:23.401Z,30.50
2022-07-29T06:56:26.077Z,30.60
2022-07-29T07:01:27.800Z,30.70
2022-07-29T07:06:29.540Z,30.80
2022-07-29T07:11:31.623Z,30.90
2022-07-29T07:16:33.678Z,31.00
2022-07-29T07:21:36.110Z,31.10
2022-07-29T07:26:38.964Z,31.10
2022-07-29T07:31:40.756Z,31.20
2022-07-29T07:36:42.466Z,31.20
2022-07-29T07:41:44.175Z,31.20
2022-07-29T07:46:46.172Z,31.30
2022-07-29T07:51:50.603Z,31.30
2022-07-29T07:56:53.365Z,31.30
2022-07-29T08:01:56.649Z,31.10
2022-07-29T08:06:59.037Z,31.30
2022-07-29T08:12:00.886Z,31.20
2022-07-29T08:17:02.707Z,31.20
2022-07-29T08:22:04.379Z,31.10
2022-07-29T08:27:21.261Z,31.10
2022-07-29T08:32:52.126Z,31.10
2022-07-29T08:37:51.591Z,31.00
2022-07-29T08:42:53.315Z,31.00
2022-07-29T08:47:56.301Z,30.90
2022-07-29T08:52:59.913Z,31.00
2022-07-29T08:58:01.936Z,31.00
2022-07-29T09:03:05.040Z,30.90
2022-07-29T09:08:06.845Z,30.90
2022-07-29T09:13:08.539Z,30.90
2022-07-29T09:18:20.613Z,30.80
2022-07-29T09:23:31.852Z,30.80
2022-07-29T09:28:33.524Z,30.80
2022-07-29T09:33:43.061Z,30.80
2022-07-29T09:38:57.560Z,30.70
2022-07-29T09:43:59.885Z,30.70
2022-07-29T09:49:11.938Z,30.60
2022-07-29T09:54:23.108Z,30.60
2022-07-29T09:59:27.511Z,30.60
2022-07-29T10:04:40.003Z,30.50
2022-07-29T10:09:50.434Z,30.60
2022-07-29T10:14:52.712Z,30.60
2022-07-29T10:19:54.529Z,30.60
2022-07-29T10:24:56.285Z,30.60
2022-07-29T10:29:57.956Z,30.60
2022-07-29T10:35:18.568Z,30.70
2022-07-29T10:40:57.784Z,30.80
2022-07-29T10:46:01.055Z,31.10
2022-07-29T10:51:04.622Z,31.20
2022-07-29T10:56:23.573Z,31.40
2022-07-29T11:01:37.519Z,31.50
2022-07-29T11:07:06.812Z,31.60
2022-07-29T11:12:27.234Z,31.70
2022-07-29T11:17:37.560Z,31.90
2022-07-29T11:22:51.621Z,32.20
2022-07-29T11:28:08.365Z,32.30
2022-07-29T11:33:54.339Z,32.50
2022-07-29T11:38:48.971Z,32.60
2022-07-29T11:43:52.167Z,32.80
2022-07-29T11:48:53.974Z,32.80
2022-07-29T11:53:58.183Z,33.00
2022-07-29T12:04:28.156Z,33.30
2022-07-29T12:07:03.939Z,33.20
2022-07-29T12:09:30.219Z,33.40
2022-07-29T12:14:46.592Z,33.50
2022-07-29T12:19:48.699Z,33.60
2022-07-29T12:24:52.671Z,33.70
2022-07-29T12:29:58.293Z,33.90
2022-07-29T12:35:02.702Z,34.00
2022-07-29T12:40:05.912Z,34.10
2022-07-29T12:45:08.100Z,34.20
2022-07-29T12:50:15.550Z,34.30
2022-07-29T12:55:37.187Z,34.40
2022-07-29T13:00:38.937Z,34.50
2022-07-29T13:05:47.010Z,34.60
2022-07-29T13:10:50.697Z,34.60
2022-07-29T13:16:06.207Z,34.70
2022-07-29T13:21:11.727Z,34.70
2022-07-29T13:26:13.557Z,34.70
2022-07-29T13:31:15.255Z,34.70
2022-07-29T13:36:17.061Z,34.70
2022-07-29T13:41:18.727Z,34.90
2022-07-29T13:46:21.224Z,34.90
2022-07-29T13:51:23.034Z,34.90
2022-07-29T13:56:24.701Z,34.80
2022-07-29T14:01:27.292Z,34.80
2022-07-29T14:06:29.018Z,34.90
2022-07-29T14:11:31.631Z,34.80
2022-07-29T14:16:33.402Z,34.70
2022-07-29T14:21:35.665Z,34.80
2022-07-29T14:26:38.359Z,34.70
2022-07-29T14:31:40.112Z,34.60
2022-07-29T14:36:42.020Z,34.60
2022-07-29T14:41:44.326Z,34.50
2022-07-29T14:46:48.598Z,34.50
2022-07-29T14:51:51.357Z,34.40
2022-07-29T14:56:56.192Z,34.30
2022-07-29T15:01:58.467Z,34.20
2022-07-29T15:07:00.368Z,34.10
2022-07-29T15:12:03.932Z,34.00
2022-07-29T15:17:05.967Z,34.00
2022-07-29T15:22:07.742Z,34.00
2022-07-29T15:27:14.938Z,33.90
2022-07-29T15:32:17.275Z,33.90
2022-07-29T15:37:19.124Z,33.90
2022-07-29T15:42:20.810Z,33.80
2022-07-29T15:47:22.528Z,33.70
2022-07-29T15:52:25.778Z,33.70
2022-07-29T15:57:27.972Z,33.60
2022-07-29T16:02:29.670Z,33.50
2022-07-29T16:07:32.541Z,33.40
2022-07-29T16:12:34.448Z,33.30
2022-07-29T16:17:36.466Z,33.30
2022-07-29T16:22:38.451Z,33.20
2022-07-29T16:27:40.126Z,33.20
2022-07-29T16:32:41.813Z,33.30
2022-07-29T16:37:43.582Z,33.40
2022-07-29T16:42:47.053Z,33.40
2022-07-29T16:47:49.305Z,33.50
2022-07-29T16:52:51.768Z,33.50
2022-07-29T16:57:53.416Z,33.50
2022-07-29T17:02:55.981Z,33.60
2022-07-29T17:07:58.471Z,33.60
2022-07-29T17:13:00.966Z,33.70
2022-07-29T17:18:02.707Z,33.60
2022-07-29T17:23:14.411Z,33.80
2022-07-29T17:28:16.053Z,33.70
2022-07-29T17:33:17.678Z,33.70
2022-07-29T17:38:22.225Z,33.70
2022-07-29T17:43:23.925Z,33.70
2022-07-29T17:48:26.528Z,33.70
2022-07-29T17:53:28.472Z,33.70
2022-07-29T17:58:30.681Z,33.70
2022-07-29T18:03:32.539Z,33.80
2022-07-29T18:08:35.014Z,33.80
2022-07-29T18:13:36.684Z,33.90
2022-07-29T18:18:38.464Z,33.80
2022-07-29T18:23:40.315Z,33.80
2022-07-29T18:28:41.979Z,34.00
2022-07-29T18:33:44.067Z,33.90
2022-07-29T18:38:45.847Z,34.00
2022-07-29T18:43:47.509Z,34.10
2022-07-29T18:48:50.050Z,34.10
2022-07-29T18:53:52.498Z,34.10
2022-07-29T18:58:55.021Z,34.20
2022-07-29T19:03:56.712Z,34.30
2022-07-29T19:08:58.541Z,34.40
2022-07-29T19:14:00.328Z,34.30
2022-07-29T19:19:02.452Z,34.40
2022-07-29T19:24:08.415Z,34.50
2022-07-29T19:29:11.978Z,34.60
2022-07-29T19:34:13.678Z,34.60
2022-07-29T19:39:15.489Z,34.60
2022-07-29T19:44:17.587Z,34.60
2022-07-29T19:49:19.275Z,34.60
2022-07-29T19:54:20.991Z,34.50
2022-07-29T19:59:23.906Z,34.60
2022-07-29T20:04:26.371Z,34.60
2022-07-29T20:09:28.335Z,34.50
2022-07-29T20:14:30.016Z,34.60
2022-07-29T20:19:32.901Z,34.50
2022-07-29T20:24:34.819Z,34.50
2022-07-29T20:29:37.164Z,34.50
2022-07-29T20:34:41.238Z,34.50
2022-07-29T20:39:42.969Z,34.40
2022-07-29T20:44:44.702Z,34.40
2022-07-29T20:49:46.376Z,34.40
2022-07-29T20:54:48.088Z,34.30
2022-07-29T20:59:52.867Z,34.20
2022-07-29T21:04:54.564Z,34.20
2022-07-29T21:09:56.235Z,34.10
2022-07-29T21:14:57.950Z,34.00
2022-07-29T21:19:59.873Z,34.00
2022-07-29T21:25:01.706Z,34.00
2022-07-29T21:30:03.688Z,33.90
2022-07-29T21:35:14.537Z,33.80
2022-07-29T21:40:27.314Z,33.70
2022-07-29T21:45:28.996Z,33.60
2022-07-29T21:50:30.786Z,33.40
2022-07-29T21:55:33.099Z,33.40
2022-07-29T22:00:35.306Z,33.30
2022-07-29T22:05:36.982Z,33.20
2022-07-29T22:10:38.709Z,33.10
2022-07-29T22:15:44.076Z,33.10
2022-07-29T22:20:49.680Z,33.00
2022-07-29T22:25:51.442Z,32.90
2022-07-29T22:30:53.163Z,32.90
2022-07-29T22:35:54.927Z,32.80
2022-07-29T22:41:00.568Z,32.80
2022-07-29T22:46:03.136Z,32.70
2022-07-29T22:51:04.918Z,32.70
2022-07-29T22:56:06.624Z,32.60
2022-07-29T23:01:08.304Z,32.50
2022-07-29T23:06:10.026Z,32.50
2022-07-29T23:11:11.972Z,32.50
2022-07-29T23:16:14.070Z,32.50
2022-07-29T23:21:28.173Z,32.50
2022-07-29T23:26:30.264Z,32.40
2022-07-29T23:31:32.026Z,32.40
2022-07-29T23:36:33.835Z,32.40
2022-07-29T23:41:35.509Z,32.30
2022-07-29T23:46:37.198Z,32.20
2022-07-29T23:51:38.925Z,32.20
2022-07-29T23:56:40.599Z,32.20
